createdAt,value
2019-03-30T00:00:02.571Z,14.60
2019-03-30T00:01:02.598Z,16.00
2019-03-30T00:02:02.553Z,15.70
2019-03-30T00:03:02.537Z,15.90
2019-03-30T00:04:02.519Z,16.40
2019-03-30T00:05:02.533Z,16.60
2019-03-30T00:06:02.537Z,16.50
2019-03-30T00:07:02.486Z,16.80
2019-03-30T00:08:02.489Z,17.20
2019-03-30T00:09:02.482Z,16.90
2019-03-30T00:10:02.468Z,16.50
2019-03-30T00:11:02.481Z,16.50
2019-03-30T00:12:02.444Z,16.90
2019-03-30T00:13:02.433Z,16.70
2019-03-30T00:14:02.424Z,17.50
2019-03-30T00:15:02.414Z,17.50
2019-03-30T00:16:02.434Z,18.80
2019-03-30T00:17:02.389Z,17.90
2019-03-30T00:18:02.384Z,18.50
2019-03-30T00:19:02.375Z,18.50
2019-03-30T00:20:02.368Z,18.50
2019-03-30T00:21:02.380Z,19.20
2019-03-30T00:22:02.347Z,18.40
2019-03-30T00:23:02.333Z,19.60
2019-03-30T00:24:02.326Z,19.60
2019-03-30T00:25:02.309Z,19.40
2019-03-30T00:26:02.329Z,19.40
2019-03-30T00:27:02.289Z,19.30
2019-03-30T00:28:02.278Z,19.00
2019-03-30T00:29:02.271Z,19.00
2019-03-30T00:30:02.261Z,20.40
2019-03-30T00:31:02.278Z,21.00
2019-03-30T00:32:02.260Z,19.40
2019-03-30T00:33:02.221Z,19.30
2019-03-30T00:34:02.217Z,20.40
2019-03-30T00:35:02.200Z,19.40
2019-03-30T00:36:02.218Z,17.90
2019-03-30T00:37:02.176Z,17.90
2019-03-30T00:38:02.184Z,17.00
2019-03-30T00:39:02.161Z,16.40
2019-03-30T00:40:02.147Z,17.60
2019-03-30T00:41:02.170Z,17.50
2019-03-30T00:42:02.124Z,17.50
2019-03-30T00:43:02.138Z,16.90
2019-03-30T00:44:02.110Z,17.80
2019-03-30T00:45:02.093Z,17.40
2019-03-30T00:46:02.108Z,18.10
2019-03-30T00:47:02.074Z,18.40
2019-03-30T00:48:02.061Z,18.30
2019-03-30T00:49:02.059Z,19.40
2019-03-30T00:50:02.044Z,18.20
2019-03-30T00:51:02.055Z,18.80
2019-03-30T00:52:02.020Z,20.00
2019-03-30T00:53:02.009Z,20.00
2019-03-30T00:54:02.001Z,20.10
2019-03-30T00:55:01.989Z,20.30
2019-03-30T00:56:02.005Z,21.00
2019-03-30T00:57:01.965Z,20.50
2019-03-30T00:58:01.954Z,20.00
2019-03-30T00:59:01.943Z,20.90
2019-03-30T01:00:01.941Z,20.80
2019-03-30T01:01:01.950Z,22.40
2019-03-30T01:02:01.919Z,21.40
2019-03-30T01:03:01.903Z,21.60
2019-03-30T01:04:01.890Z,21.60
2019-03-30T01:05:01.887Z,22.70
2019-03-30T01:06:01.904Z,22.20
2019-03-30T01:07:01.871Z,23.60
2019-03-30T01:08:01.852Z,24.60
2019-03-30T01:09:01.839Z,23.10
2019-03-30T01:10:01.828Z,22.80
2019-03-30T01:11:01.853Z,24.00
2019-03-30T01:12:01.803Z,23.00
2019-03-30T01:13:01.806Z,24.10
2019-03-30T01:14:01.787Z,22.80
2019-03-30T01:15:01.790Z,22.80
2019-03-30T01:16:01.793Z,22.10
2019-03-30T01:17:01.758Z,22.20
2019-03-30T01:18:01.747Z,22.50
2019-03-30T01:19:01.740Z,21.50
2019-03-30T01:20:03.276Z,21.80
2019-03-30T01:21:01.739Z,21.50
2019-03-30T01:22:01.706Z,22.20
2019-03-30T01:23:01.695Z,22.20
2019-03-30T01:24:01.687Z,23.10
2019-03-30T01:25:01.708Z,21.90
2019-03-30T01:26:01.684Z,22.10
2019-03-30T01:27:01.648Z,22.30
2019-03-30T01:28:01.640Z,22.30
2019-03-30T01:29:01.632Z,22.60
2019-03-30T01:30:01.617Z,23.10
2019-03-30T01:31:01.673Z,22.30
2019-03-30T01:32:01.595Z,22.50
2019-03-30T01:33:01.581Z,22.30
2019-03-30T01:34:01.571Z,22.60
2019-03-30T01:35:01.586Z,23.30
2019-03-30T01:36:01.579Z,23.00
2019-03-30T01:37:01.540Z,22.80
2019-03-30T01:38:01.533Z,22.70
2019-03-30T01:39:01.521Z,24.00
2019-03-30T01:40:01.510Z,23.80
2019-03-30T01:41:01.535Z,23.20
2019-03-30T01:42:01.484Z,22.40
2019-03-30T01:43:01.509Z,22.90
2019-03-30T01:44:01.465Z,22.70
2019-03-30T01:45:01.459Z,23.40
2019-03-30T01:46:01.472Z,21.60
2019-03-30T01:47:01.439Z,22.30
2019-03-30T01:48:01.422Z,22.20
2019-03-30T01:49:01.408Z,22.90
2019-03-30T01:50:01.401Z,21.70
2019-03-30T01:51:01.422Z,21.70
2019-03-30T01:52:01.380Z,23.10
2019-03-30T01:53:01.373Z,21.20
2019-03-30T01:54:01.361Z,21.40
2019-03-30T01:55:01.355Z,21.90
2019-03-30T01:56:01.365Z,21.10
2019-03-30T01:57:01.339Z,21.50
2019-03-30T01:58:01.317Z,22.60
2019-03-30T01:59:01.303Z,22.90
2019-03-30T02:00:01.302Z,22.90
2019-03-30T02:01:01.310Z,22.20
2019-03-30T02:02:01.276Z,23.20
2019-03-30T02:03:01.267Z,23.50
2019-03-30T02:04:01.253Z,23.60
2019-03-30T02:05:01.244Z,24.20
2019-03-30T02:06:01.277Z,23.90
2019-03-30T02:07:01.219Z,23.90
2019-03-30T02:08:01.210Z,23.50
2019-03-30T02:09:01.215Z,23.60
2019-03-30T02:10:01.186Z,23.70
2019-03-30T02:11:01.177Z,22.70
2019-03-30T02:12:01.196Z,23.20
2019-03-30T02:13:01.163Z,23.60
2019-03-30T02:14:01.145Z,24.20
2019-03-30T02:15:01.151Z,23.50
2019-03-30T02:16:01.129Z,24.80
2019-03-30T02:17:01.151Z,24.00
2019-03-30T02:18:01.104Z,23.00
2019-03-30T02:19:01.099Z,23.50
2019-03-30T02:20:01.089Z,22.90
2019-03-30T02:21:01.072Z,23.10
2019-03-30T02:22:01.096Z,24.00
2019-03-30T02:23:01.047Z,23.30
2019-03-30T02:24:01.045Z,23.60
2019-03-30T02:25:01.044Z,23.60
2019-03-30T02:26:01.018Z,24.70
2019-03-30T02:27:01.038Z,24.60
2019-03-30T02:28:00.996Z,24.00
2019-03-30T02:29:00.988Z,25.80
2019-03-30T02:30:00.988Z,26.40
2019-03-30T02:31:00.968Z,25.50
2019-03-30T02:32:00.983Z,25.60
2019-03-30T02:33:00.943Z,25.20
2019-03-30T02:34:00.940Z,25.70
2019-03-30T02:35:00.926Z,26.50
2019-03-30T02:36:00.922Z,25.30
2019-03-30T02:37:00.933Z,26.60
2019-03-30T02:38:00.894Z,25.30
2019-03-30T02:39:00.887Z,25.60
2019-03-30T02:40:00.870Z,25.30
2019-03-30T02:41:00.885Z,27.10
2019-03-30T02:42:00.880Z,26.50
2019-03-30T02:43:00.844Z,26.40
2019-03-30T02:44:00.834Z,26.00
2019-03-30T02:45:00.820Z,26.80
2019-03-30T02:46:00.809Z,27.30
2019-03-30T02:47:00.824Z,27.00
2019-03-30T02:48:00.835Z,26.60
2019-03-30T02:49:00.788Z,26.10
2019-03-30T02:50:00.781Z,26.10
2019-03-30T02:51:00.771Z,25.00
2019-03-30T02:52:00.770Z,24.90
2019-03-30T02:53:00.739Z,24.90
2019-03-30T02:54:00.726Z,24.80
2019-03-30T02:55:00.752Z,24.10
2019-03-30T02:56:00.710Z,23.80
2019-03-30T02:57:00.743Z,22.60
2019-03-30T02:58:00.678Z,24.50
2019-03-30T02:59:00.670Z,22.90
2019-03-30T03:00:00.656Z,22.60
2019-03-30T03:01:00.647Z,23.80
2019-03-30T03:02:00.659Z,24.30
2019-03-30T03:03:00.636Z,23.40
2019-03-30T03:04:00.612Z,23.10
2019-03-30T03:05:00.610Z,23.20
2019-03-30T03:06:00.591Z,22.00
2019-03-30T03:07:00.615Z,21.80
2019-03-30T03:08:00.592Z,22.70
2019-03-30T03:09:00.563Z,21.70
2019-03-30T03:10:00.561Z,23.00
2019-03-30T03:11:00.537Z,21.40
2019-03-30T03:12:00.560Z,22.30
2019-03-30T03:13:00.520Z,20.60
2019-03-30T03:14:00.517Z,21.20
2019-03-30T03:15:00.633Z,22.30
2019-03-30T03:16:00.493Z,21.00
2019-03-30T03:17:00.500Z,21.80
2019-03-30T03:18:00.482Z,21.60
2019-03-30T03:19:00.456Z,19.90
2019-03-30T03:20:00.500Z,20.90
2019-03-30T03:21:08.021Z,20.30
2019-03-30T03:22:01.457Z,20.60
2019-03-30T03:23:00.408Z,20.40
2019-03-30T03:24:00.400Z,21.00
2019-03-30T03:25:00.632Z,20.90
2019-03-30T03:26:00.380Z,20.70
2019-03-30T03:27:00.391Z,22.00
2019-03-30T03:28:00.370Z,22.40
2019-03-30T03:29:00.348Z,22.60
2019-03-30T03:30:00.837Z,22.20
2019-03-30T03:31:00.329Z,22.10
2019-03-30T03:32:00.359Z,21.60
2019-03-30T03:33:00.310Z,21.80
2019-03-30T03:34:00.321Z,22.00
2019-03-30T03:35:00.790Z,23.30
2019-03-30T03:36:00.269Z,22.50
2019-03-30T03:37:00.282Z,22.20
2019-03-30T03:38:00.246Z,21.60
2019-03-30T03:39:00.243Z,21.80
2019-03-30T03:40:00.550Z,22.10
2019-03-30T03:41:00.218Z,22.30
2019-03-30T03:42:00.281Z,22.70
2019-03-30T03:43:00.213Z,24.50
2019-03-30T03:44:00.187Z,24.70
2019-03-30T03:45:00.253Z,24.90
2019-03-30T03:46:00.166Z,25.50
2019-03-30T03:47:00.187Z,24.70
2019-03-30T03:48:00.153Z,23.50
2019-03-30T03:49:00.140Z,24.30
2019-03-30T03:50:00.405Z,24.40
2019-03-30T03:51:00.127Z,25.80
2019-03-30T03:52:00.143Z,25.30
2019-03-30T03:53:00.089Z,24.90
2019-03-30T03:54:00.093Z,25.80
2019-03-30T03:55:00.149Z,25.20
2019-03-30T03:56:00.070Z,24.30
2019-03-30T03:57:00.080Z,22.30
2019-03-30T03:58:00.041Z,23.20
2019-03-30T03:59:00.032Z,24.00
2019-03-30T04:00:00.025Z,23.70
2019-03-30T04:01:00.012Z,23.10
2019-03-30T04:02:00.041Z,22.60
2019-03-30T04:02:59.992Z,22.60
2019-03-30T04:03:59.971Z,21.90
2019-03-30T04:04:59.973Z,21.70
2019-03-30T04:05:59.959Z,22.00
2019-03-30T04:07:00.050Z,21.60
2019-03-30T04:07:59.953Z,22.00
2019-03-30T04:08:59.926Z,21.70
2019-03-30T04:09:59.910Z,22.60
2019-03-30T04:10:59.904Z,21.60
2019-03-30T04:11:59.925Z,20.70
2019-03-30T04:12:59.877Z,21.00
2019-03-30T04:13:59.868Z,20.90
2019-03-30T04:14:59.856Z,21.80
2019-03-30T04:15:59.857Z,20.80
2019-03-30T04:16:59.863Z,21.30
2019-03-30T04:17:59.826Z,21.30
2019-03-30T04:18:59.816Z,22.60
2019-03-30T04:19:59.814Z,21.70
2019-03-30T04:20:59.814Z,21.20
2019-03-30T04:21:59.812Z,22.00
2019-03-30T04:22:59.774Z,22.20
2019-03-30T04:23:59.760Z,21.60
2019-03-30T04:24:59.755Z,22.20
2019-03-30T04:25:59.741Z,21.90
2019-03-30T04:26:59.753Z,22.90
2019-03-30T04:27:59.722Z,21.60
2019-03-30T04:28:59.710Z,22.30
2019-03-30T04:29:59.700Z,22.50
2019-03-30T04:30:59.686Z,22.60
2019-03-30T04:31:59.711Z,20.80
2019-03-30T04:32:59.665Z,20.60
2019-03-30T04:33:59.661Z,20.50
2019-03-30T04:34:59.646Z,21.00
2019-03-30T04:35:59.658Z,20.70
2019-03-30T04:36:59.624Z,19.90
2019-03-30T04:37:59.641Z,20.70
2019-03-30T04:38:59.600Z,20.30
2019-03-30T04:39:59.594Z,20.30
2019-03-30T04:40:59.579Z,20.10
2019-03-30T04:41:59.566Z,20.00
2019-03-30T04:42:59.580Z,19.20
2019-03-30T04:43:59.548Z,18.80
2019-03-30T04:44:59.538Z,18.80
2019-03-30T04:45:59.530Z,19.60
2019-03-30T04:46:59.518Z,18.70
2019-03-30T04:47:59.533Z,18.70
2019-03-30T04:48:59.498Z,19.80
2019-03-30T04:49:59.483Z,18.70
2019-03-30T04:50:59.474Z,18.40
2019-03-30T04:51:59.459Z,19.00
2019-03-30T04:52:59.479Z,19.00
2019-03-30T04:53:59.443Z,18.30
2019-03-30T04:54:59.432Z,18.80
2019-03-30T04:55:59.419Z,18.10
2019-03-30T04:56:59.407Z,18.90
2019-03-30T04:57:59.427Z,18.60
2019-03-30T04:58:59.469Z,18.90
2019-03-30T04:59:59.380Z,19.00
2019-03-30T05:00:59.368Z,19.50
2019-03-30T05:01:59.361Z,19.10
2019-03-30T05:02:59.376Z,19.00
2019-03-30T05:03:59.336Z,19.10
2019-03-30T05:04:59.330Z,19.80
2019-03-30T05:05:59.318Z,19.40
2019-03-30T05:06:59.309Z,19.50
2019-03-30T05:07:59.324Z,19.00
2019-03-30T05:08:59.287Z,19.90
2019-03-30T05:09:59.282Z,19.10
2019-03-30T05:10:59.435Z,19.80
2019-03-30T05:11:59.254Z,19.50
2019-03-30T05:12:59.271Z,20.00
2019-03-30T05:13:59.232Z,19.10
2019-03-30T05:14:59.226Z,18.80
2019-03-30T05:15:59.227Z,19.10
2019-03-30T05:16:59.207Z,18.80
2019-03-30T05:17:59.221Z,18.50
2019-03-30T05:18:59.179Z,18.80
2019-03-30T05:19:59.167Z,18.10
2019-03-30T05:20:59.168Z,17.60
2019-03-30T05:22:11.380Z,18.30
2019-03-30T05:23:00.165Z,18.40
2019-03-30T05:23:59.128Z,17.40
2019-03-30T05:24:59.118Z,18.10
2019-03-30T05:25:59.105Z,18.80
2019-03-30T05:26:59.101Z,18.30
2019-03-30T05:27:59.120Z,18.10
2019-03-30T05:28:59.083Z,18.50
2019-03-30T05:29:59.067Z,18.00
2019-03-30T05:30:59.052Z,18.50
2019-03-30T05:31:59.055Z,18.50
2019-03-30T05:33:05.466Z,18.00
2019-03-30T05:34:00.025Z,17.70
2019-03-30T05:34:59.008Z,17.90
2019-03-30T05:35:59.000Z,17.20
2019-03-30T05:36:58.988Z,17.10
2019-03-30T05:38:01.415Z,17.40
2019-03-30T05:38:58.969Z,17.50
2019-03-30T05:39:58.959Z,18.10
2019-03-30T05:40:58.946Z,17.30
2019-03-30T05:41:58.938Z,18.10
2019-03-30T05:42:58.959Z,16.90
2019-03-30T05:43:58.911Z,17.20
2019-03-30T05:44:58.904Z,17.30
2019-03-30T05:45:58.887Z,16.80
2019-03-30T05:46:58.892Z,17.20
2019-03-30T05:47:58.899Z,16.90
2019-03-30T05:48:58.866Z,16.70
2019-03-30T05:49:58.857Z,17.20
2019-03-30T05:50:58.845Z,17.10
2019-03-30T05:51:58.827Z,16.40
2019-03-30T05:52:58.841Z,16.10
2019-03-30T05:53:58.806Z,16.30
2019-03-30T05:54:58.801Z,16.50
2019-03-30T05:55:58.783Z,16.00
2019-03-30T05:56:58.784Z,15.50
2019-03-30T05:57:58.789Z,16.00
2019-03-30T05:58:58.754Z,15.80
2019-03-30T05:59:58.744Z,15.70
2019-03-30T06:00:58.746Z,15.20
2019-03-30T06:01:58.729Z,15.60
2019-03-30T06:02:58.736Z,15.90
2019-03-30T06:03:58.735Z,15.80
2019-03-30T06:04:58.932Z,15.60
2019-03-30T06:05:58.685Z,15.20
2019-03-30T06:06:58.747Z,14.90
2019-03-30T06:07:58.767Z,15.00
2019-03-30T06:08:58.843Z,16.00
2019-03-30T06:09:58.811Z,15.60
2019-03-30T06:10:58.751Z,15.10
2019-03-30T06:11:58.885Z,15.40
2019-03-30T06:12:58.916Z,15.70
2019-03-30T06:13:58.935Z,15.90
2019-03-30T06:14:58.886Z,15.30
2019-03-30T06:15:58.727Z,16.00
2019-03-30T06:16:58.796Z,15.80
2019-03-30T06:17:59.021Z,16.60
2019-03-30T06:18:58.846Z,16.20
2019-03-30T06:19:58.526Z,15.80
2019-03-30T06:20:58.520Z,15.40
2019-03-30T06:21:58.510Z,15.70
2019-03-30T06:22:58.533Z,16.00
2019-03-30T06:23:58.490Z,15.80
2019-03-30T06:24:58.477Z,16.00
2019-03-30T06:25:58.476Z,16.00
2019-03-30T06:26:58.460Z,16.50
2019-03-30T06:27:58.535Z,17.00
2019-03-30T06:28:58.436Z,15.90
2019-03-30T06:29:58.427Z,16.90
2019-03-30T06:30:58.416Z,17.40
2019-03-30T06:31:58.404Z,18.10
2019-03-30T06:32:58.418Z,17.40
2019-03-30T06:33:58.385Z,18.00
2019-03-30T06:34:58.409Z,18.60
2019-03-30T06:35:58.366Z,17.90
2019-03-30T06:36:58.351Z,18.80
2019-03-30T06:37:58.398Z,17.90
2019-03-30T06:38:58.339Z,18.10
2019-03-30T06:39:58.403Z,17.50
2019-03-30T06:40:58.310Z,17.00
2019-03-30T06:41:58.301Z,18.00
2019-03-30T06:42:58.312Z,18.00
2019-03-30T06:43:58.274Z,17.40
2019-03-30T06:44:58.322Z,17.60
2019-03-30T06:45:58.257Z,18.00
2019-03-30T06:46:58.250Z,17.30
2019-03-30T06:47:58.307Z,17.60
2019-03-30T06:48:58.219Z,17.40
2019-03-30T06:49:58.214Z,16.60
2019-03-30T06:50:58.200Z,16.60
2019-03-30T06:51:58.191Z,17.10
2019-03-30T06:52:58.894Z,17.20
2019-03-30T06:53:58.178Z,16.40
2019-03-30T06:54:58.159Z,16.30
2019-03-30T06:55:58.150Z,16.80
2019-03-30T06:56:58.139Z,17.20
2019-03-30T06:57:58.168Z,16.50
2019-03-30T06:58:58.120Z,17.10
2019-03-30T06:59:58.104Z,16.40
2019-03-30T07:00:58.100Z,16.40
2019-03-30T07:01:58.084Z,17.60
2019-03-30T07:02:58.076Z,17.20
2019-03-30T07:03:58.083Z,17.50
2019-03-30T07:04:58.053Z,16.90
2019-03-30T07:05:58.039Z,18.30
2019-03-30T07:06:58.037Z,17.00
2019-03-30T07:07:58.030Z,16.80
2019-03-30T07:08:58.041Z,16.70
2019-03-30T07:09:57.997Z,17.00
2019-03-30T07:10:57.997Z,17.30
2019-03-30T07:11:57.977Z,16.50
2019-03-30T07:12:57.970Z,16.50
2019-03-30T07:13:57.981Z,17.00
2019-03-30T07:14:57.943Z,16.20
2019-03-30T07:15:57.943Z,17.20
2019-03-30T07:16:57.928Z,16.50
2019-03-30T07:17:57.912Z,16.50
2019-03-30T07:18:57.931Z,16.50
2019-03-30T07:19:57.891Z,15.80
2019-03-30T07:20:57.880Z,16.60
2019-03-30T07:21:57.875Z,14.70
2019-03-30T07:23:11.346Z,15.80
2019-03-30T07:23:58.878Z,16.40
2019-03-30T07:24:57.845Z,15.30
2019-03-30T07:25:57.827Z,14.60
2019-03-30T07:26:57.817Z,16.10
2019-03-30T07:27:57.812Z,15.30
2019-03-30T07:28:57.826Z,14.70
2019-03-30T07:29:57.784Z,15.60
2019-03-30T07:30:57.778Z,15.00
2019-03-30T07:31:57.768Z,15.60
2019-03-30T07:32:57.754Z,15.20
2019-03-30T07:33:57.776Z,14.40
2019-03-30T07:34:57.733Z,14.60
2019-03-30T07:35:57.729Z,14.40
2019-03-30T07:36:57.719Z,14.30
2019-03-30T07:37:57.704Z,14.20
2019-03-30T07:38:57.716Z,14.10
2019-03-30T07:39:57.686Z,13.40
2019-03-30T07:40:57.668Z,14.10
2019-03-30T07:41:57.661Z,14.00
2019-03-30T07:42:57.650Z,13.50
2019-03-30T07:43:57.669Z,13.90
2019-03-30T07:44:57.633Z,13.60
2019-03-30T07:45:57.633Z,13.60
2019-03-30T07:46:57.635Z,13.60
2019-03-30T07:47:57.598Z,14.30
2019-03-30T07:48:57.609Z,13.70
2019-03-30T07:49:57.580Z,13.50
2019-03-30T07:50:57.563Z,13.60
2019-03-30T07:51:57.554Z,13.20
2019-03-30T07:52:57.543Z,14.30
2019-03-30T07:53:57.557Z,13.60
2019-03-30T07:54:57.523Z,13.60
2019-03-30T07:56:07.809Z,14.20
2019-03-30T07:57:04.961Z,13.70
2019-03-30T07:57:58.504Z,13.90
2019-03-30T07:58:57.505Z,13.20
2019-03-30T07:59:57.495Z,14.10
2019-03-30T08:00:57.456Z,13.60
2019-03-30T08:01:57.447Z,13.30
2019-03-30T08:02:57.435Z,13.50
2019-03-30T08:03:57.455Z,13.80
2019-03-30T08:04:57.414Z,12.90
2019-03-30T08:05:57.404Z,13.80
2019-03-30T08:06:57.396Z,13.30
2019-03-30T08:07:57.379Z,13.80
2019-03-30T08:08:57.400Z,13.50
2019-03-30T08:09:57.360Z,14.20
2019-03-30T08:10:57.351Z,13.70
2019-03-30T08:11:57.340Z,14.20
2019-03-30T08:12:57.327Z,13.40
2019-03-30T08:13:57.346Z,13.20
2019-03-30T08:14:57.308Z,12.90
2019-03-30T08:15:57.296Z,13.40
2019-03-30T08:16:57.288Z,12.70
2019-03-30T08:17:57.275Z,12.80
2019-03-30T08:18:57.287Z,13.30
2019-03-30T08:19:57.257Z,13.30
2019-03-30T08:20:57.244Z,13.20
2019-03-30T08:21:57.234Z,13.40
2019-03-30T08:22:57.226Z,13.40
2019-03-30T08:23:57.387Z,13.10
2019-03-30T08:24:57.200Z,13.70
2019-03-30T08:25:57.196Z,13.00
2019-03-30T08:26:57.190Z,13.10
2019-03-30T08:27:57.174Z,12.90
2019-03-30T08:28:57.160Z,12.70
2019-03-30T08:29:57.178Z,13.10
2019-03-30T08:30:57.142Z,13.00
2019-03-30T08:31:57.128Z,13.50
2019-03-30T08:32:57.115Z,13.10
2019-03-30T08:33:57.107Z,13.60
2019-03-30T08:34:57.118Z,13.90
2019-03-30T08:35:57.088Z,13.20
2019-03-30T08:36:59.381Z,13.30
2019-03-30T08:37:57.077Z,13.10
2019-03-30T08:38:57.058Z,13.20
2019-03-30T08:39:57.079Z,13.70
2019-03-30T08:40:57.035Z,12.70
2019-03-30T08:41:57.030Z,12.90
2019-03-30T08:42:57.017Z,13.10
2019-03-30T08:43:56.999Z,12.70
2019-03-30T08:44:57.020Z,13.50
2019-03-30T08:45:56.981Z,12.70
2019-03-30T08:46:56.975Z,13.10
2019-03-30T08:47:56.959Z,13.90
2019-03-30T08:48:56.949Z,12.70
2019-03-30T08:49:56.967Z,13.10
2019-03-30T08:50:56.933Z,12.90
2019-03-30T08:51:56.933Z,12.80
2019-03-30T08:52:56.907Z,12.80
2019-03-30T08:53:56.897Z,12.90
2019-03-30T08:54:56.915Z,12.40
2019-03-30T08:55:56.879Z,12.80
2019-03-30T08:56:56.865Z,12.30
2019-03-30T08:57:56.855Z,13.40
2019-03-30T08:58:56.845Z,13.40
2019-03-30T08:59:56.864Z,13.30
2019-03-30T09:00:56.831Z,13.40
2019-03-30T09:01:56.815Z,13.60
2019-03-30T09:02:56.834Z,13.60
2019-03-30T09:03:56.793Z,13.20
2019-03-30T09:04:56.809Z,12.80
2019-03-30T09:05:56.778Z,12.90
2019-03-30T09:06:56.766Z,12.90
2019-03-30T09:07:56.753Z,12.70
2019-03-30T09:08:56.742Z,13.10
2019-03-30T09:09:56.758Z,12.60
2019-03-30T09:10:56.729Z,12.80
2019-03-30T09:11:56.711Z,13.10
2019-03-30T09:12:56.708Z,13.00
2019-03-30T09:13:56.691Z,13.00
2019-03-30T09:14:56.705Z,13.10
2019-03-30T09:15:56.667Z,12.40
2019-03-30T09:16:56.661Z,12.30
2019-03-30T09:17:56.649Z,12.90
2019-03-30T09:18:56.672Z,12.80
2019-03-30T09:19:56.654Z,13.70
2019-03-30T09:20:56.622Z,13.40
2019-03-30T09:21:56.615Z,13.40
2019-03-30T09:22:56.602Z,12.90
2019-03-30T09:24:08.773Z,13.40
2019-03-30T09:24:57.607Z,13.50
2019-03-30T09:25:56.569Z,12.60
2019-03-30T09:26:56.563Z,12.80
2019-03-30T09:27:56.549Z,12.80
2019-03-30T09:28:56.538Z,12.90
2019-03-30T09:29:56.648Z,12.60
2019-03-30T09:30:56.519Z,13.60
2019-03-30T09:31:56.619Z,12.60
2019-03-30T09:32:56.493Z,13.30
2019-03-30T09:33:56.484Z,13.90
2019-03-30T09:34:56.497Z,13.30
2019-03-30T09:35:56.466Z,12.60
2019-03-30T09:36:56.544Z,13.40
2019-03-30T09:37:56.439Z,12.60
2019-03-30T09:38:56.431Z,12.60
2019-03-30T09:39:56.525Z,13.00
2019-03-30T09:40:56.429Z,13.20
2019-03-30T09:41:56.424Z,12.90
2019-03-30T09:42:56.391Z,13.20
2019-03-30T09:43:56.380Z,13.30
2019-03-30T09:44:56.397Z,12.50
2019-03-30T09:45:56.362Z,12.30
2019-03-30T09:46:56.356Z,12.40
2019-03-30T09:47:56.340Z,12.10
2019-03-30T09:48:56.860Z,12.10
2019-03-30T09:49:56.349Z,11.50
2019-03-30T09:50:56.324Z,11.50
2019-03-30T09:51:56.304Z,11.50
2019-03-30T09:52:56.300Z,12.00
2019-03-30T09:53:56.282Z,11.60
2019-03-30T09:54:56.338Z,11.70
2019-03-30T09:55:56.261Z,11.40
2019-03-30T09:56:56.262Z,11.90
2019-03-30T09:57:56.239Z,11.40
2019-03-30T09:58:56.234Z,11.70
2019-03-30T09:59:56.221Z,11.60
2019-03-30T10:00:56.248Z,11.90
2019-03-30T10:01:56.201Z,11.80
2019-03-30T10:02:56.193Z,11.90
2019-03-30T10:03:56.279Z,12.00
2019-03-30T10:04:56.174Z,12.00
2019-03-30T10:05:56.189Z,12.20
2019-03-30T10:06:56.148Z,11.90
2019-03-30T10:07:56.139Z,11.50
2019-03-30T10:08:56.130Z,11.70
2019-03-30T10:09:56.122Z,11.50
2019-03-30T10:10:56.152Z,11.30
2019-03-30T10:11:56.099Z,11.40
2019-03-30T10:12:56.089Z,11.20
2019-03-30T10:13:56.079Z,11.50
2019-03-30T10:14:56.078Z,11.30
2019-03-30T10:15:56.091Z,11.40
2019-03-30T10:16:56.050Z,11.40
2019-03-30T10:17:56.042Z,11.20
2019-03-30T10:18:56.033Z,11.10
2019-03-30T10:20:04.326Z,11.70
2019-03-30T10:20:57.042Z,11.40
2019-03-30T10:21:55.999Z,11.20
2019-03-30T10:22:55.990Z,9.50
2019-03-30T10:23:55.979Z,9.60
2019-03-30T10:24:58.399Z,9.80
2019-03-30T10:25:55.998Z,8.90
2019-03-30T10:26:55.951Z,9.10
2019-03-30T10:27:55.943Z,9.10
2019-03-30T10:28:55.941Z,9.30
2019-03-30T10:29:55.938Z,9.00
2019-03-30T10:30:55.941Z,9.30
2019-03-30T10:31:55.914Z,9.50
2019-03-30T10:32:55.896Z,8.70
2019-03-30T10:33:55.895Z,9.30
2019-03-30T10:34:55.875Z,10.10
2019-03-30T10:35:55.891Z,9.80
2019-03-30T10:36:55.874Z,9.70
2019-03-30T10:37:55.850Z,10.20
2019-03-30T10:38:55.840Z,9.10
2019-03-30T10:39:55.831Z,8.80
2019-03-30T10:40:55.846Z,9.90
2019-03-30T10:41:55.829Z,9.40
2019-03-30T10:42:55.795Z,9.70
2019-03-30T10:43:55.794Z,10.00
2019-03-30T10:44:55.788Z,9.90
2019-03-30T10:45:55.798Z,9.40
2019-03-30T10:46:55.831Z,9.30
2019-03-30T10:47:55.757Z,10.10
2019-03-30T10:48:55.737Z,9.20
2019-03-30T10:49:55.731Z,9.20
2019-03-30T10:50:55.758Z,9.20
2019-03-30T10:51:55.708Z,8.80
2019-03-30T10:52:55.695Z,8.90
2019-03-30T10:53:55.691Z,9.20
2019-03-30T10:54:55.674Z,9.40
2019-03-30T10:55:55.702Z,9.50
2019-03-30T10:56:55.662Z,9.40
2019-03-30T10:57:58.452Z,9.40
2019-03-30T10:58:55.633Z,10.30
2019-03-30T10:59:55.626Z,9.30
2019-03-30T11:00:55.642Z,9.60
2019-03-30T11:01:55.604Z,9.90
2019-03-30T11:02:55.595Z,10.00
2019-03-30T11:03:55.581Z,9.50
2019-03-30T11:04:55.580Z,8.90
2019-03-30T11:05:55.590Z,9.20
2019-03-30T11:06:55.552Z,10.00
2019-03-30T11:07:55.542Z,9.70
2019-03-30T11:08:55.532Z,9.10
2019-03-30T11:09:55.518Z,8.80
2019-03-30T11:10:55.544Z,8.80
2019-03-30T11:11:55.500Z,9.00
2019-03-30T11:12:55.493Z,8.70
2019-03-30T11:13:55.479Z,8.10
2019-03-30T11:14:55.468Z,8.60
2019-03-30T11:15:55.498Z,8.80
2019-03-30T11:16:55.448Z,8.20
2019-03-30T11:17:55.442Z,8.80
2019-03-30T11:18:55.433Z,8.60
2019-03-30T11:19:55.420Z,8.80
2019-03-30T11:20:55.442Z,8.60
2019-03-30T11:21:55.401Z,8.70
2019-03-30T11:22:55.391Z,8.80
2019-03-30T11:23:55.381Z,8.80
2019-03-30T11:25:08.359Z,8.80
2019-03-30T11:25:55.387Z,8.90
2019-03-30T11:26:55.367Z,9.00
2019-03-30T11:27:55.347Z,9.00
2019-03-30T11:28:55.332Z,8.90
2019-03-30T11:29:55.332Z,8.70
2019-03-30T11:30:55.346Z,8.70
2019-03-30T11:31:55.319Z,8.20
2019-03-30T11:32:55.327Z,8.90
2019-03-30T11:33:55.328Z,8.60
2019-03-30T11:34:55.316Z,9.10
2019-03-30T11:35:55.311Z,9.30
2019-03-30T11:36:55.283Z,9.20
2019-03-30T11:37:55.262Z,8.60
2019-03-30T11:38:55.260Z,8.40
2019-03-30T11:39:55.247Z,8.80
2019-03-30T11:40:55.277Z,8.90
2019-03-30T11:41:55.236Z,8.40
2019-03-30T11:42:55.216Z,8.70
2019-03-30T11:43:55.202Z,8.20
2019-03-30T11:44:55.207Z,9.30
2019-03-30T11:45:55.214Z,8.20
2019-03-30T11:46:55.173Z,8.70
2019-03-30T11:47:55.169Z,8.20
2019-03-30T11:48:55.151Z,8.40
2019-03-30T11:49:55.145Z,7.90
2019-03-30T11:50:55.166Z,8.50
2019-03-30T11:51:55.128Z,8.70
2019-03-30T11:52:55.113Z,8.00
2019-03-30T11:53:55.105Z,7.60
2019-03-30T11:54:55.091Z,7.30
2019-03-30T11:55:55.121Z,7.70
2019-03-30T11:56:55.082Z,7.40
2019-03-30T11:57:55.069Z,8.10
2019-03-30T11:58:55.063Z,7.50
2019-03-30T11:59:55.052Z,7.40
2019-03-30T12:00:55.064Z,7.40
2019-03-30T12:01:55.023Z,7.20
2019-03-30T12:02:55.018Z,7.30
2019-03-30T12:03:55.005Z,6.70
2019-03-30T12:04:54.999Z,6.80
2019-03-30T12:05:55.021Z,7.40
2019-03-30T12:06:54.987Z,7.20
2019-03-30T12:07:54.965Z,6.90
2019-03-30T12:08:54.965Z,7.20
2019-03-30T12:09:54.970Z,7.10
2019-03-30T12:10:54.981Z,6.90
2019-03-30T12:11:54.964Z,7.10
2019-03-30T12:12:54.920Z,7.10
2019-03-30T12:13:54.916Z,7.00
2019-03-30T12:14:54.898Z,7.30
2019-03-30T12:15:54.894Z,7.40
2019-03-30T12:16:54.898Z,7.30
2019-03-30T12:17:54.878Z,7.00
2019-03-30T12:18:54.854Z,7.40
2019-03-30T12:19:54.861Z,7.20
2019-03-30T12:20:54.839Z,6.80
2019-03-30T12:21:54.846Z,6.20
2019-03-30T12:22:54.816Z,6.20
2019-03-30T12:23:54.813Z,6.80
2019-03-30T12:24:54.799Z,7.00
2019-03-30T12:25:54.779Z,7.10
2019-03-30T12:26:55.614Z,6.60
2019-03-30T12:27:54.769Z,6.10
2019-03-30T12:28:54.753Z,7.00
2019-03-30T12:29:54.748Z,7.80
2019-03-30T12:30:54.743Z,7.50
2019-03-30T12:31:54.754Z,7.90
2019-03-30T12:32:54.717Z,8.10
2019-03-30T12:33:54.703Z,7.80
2019-03-30T12:34:54.786Z,8.40
2019-03-30T12:35:54.681Z,7.80
2019-03-30T12:36:55.963Z,8.90
2019-03-30T12:37:54.706Z,8.40
2019-03-30T12:38:54.698Z,8.30
2019-03-30T12:39:57.989Z,8.70
2019-03-30T12:40:54.635Z,8.00
2019-03-30T12:41:54.660Z,8.20
2019-03-30T12:42:54.617Z,8.50
2019-03-30T12:43:54.601Z,8.90
2019-03-30T12:44:54.602Z,8.70
2019-03-30T12:45:54.588Z,8.70
2019-03-30T12:46:54.619Z,8.50
2019-03-30T12:47:54.657Z,8.20
2019-03-30T12:48:54.555Z,7.80
2019-03-30T12:49:54.571Z,7.10
2019-03-30T12:50:54.545Z,7.90
2019-03-30T12:51:54.552Z,8.20
2019-03-30T12:52:54.516Z,7.90
2019-03-30T12:53:54.523Z,8.70
2019-03-30T12:54:54.507Z,9.10
2019-03-30T12:55:54.562Z,8.90
2019-03-30T12:56:54.501Z,8.80